sensor_id;sensor_type;location;lat;lon;timestamp;P1;durP1;ratioP1;P2;durP2;ratioP2
65202;SDS011;51788;45.124;38.966;2023-02-28T00:00:28;8.38;;;6.38;;
65202;SDS011;51788;45.124;38.966;2023-02-28T00:02:54;7.30;;;5.82;;
65202;SDS011;51788;45.124;38.966;2023-02-28T00:05:21;8.18;;;5.53;;
65202;SDS011;51788;45.124;38.966;2023-02-28T00:07:49;6.45;;;5.50;;
65202;SDS011;51788;45.124;38.966;2023-02-28T00:10:17;6.38;;;5.30;;
65202;SDS011;51788;45.124;38.966;2023-02-28T00:12:49;12.20;;;6.43;;
65202;SDS011;51788;45.124;38.966;2023-02-28T00:15:16;6.38;;;5.78;;
65202;SDS011;51788;45.124;38.966;2023-02-28T00:17:42;10.18;;;5.65;;
65202;SDS011;51788;45.124;38.966;2023-02-28T00:20:09;8.98;;;5.65;;
65202;SDS011;51788;45.124;38.966;2023-02-28T00:22:44;7.15;;;5.75;;
65202;SDS011;51788;45.124;38.966;2023-02-28T00:25:12;6.53;;;5.90;;
65202;SDS011;51788;45.124;38.966;2023-02-28T00:27:40;8.75;;;6.30;;
65202;SDS011;51788;45.124;38.966;2023-02-28T00:30:07;6.88;;;5.95;;
65202;SDS011;51788;45.124;38.966;2023-02-28T00:32:36;6.88;;;5.57;;
65202;SDS011;51788;45.124;38.966;2023-02-28T00:35:02;8.15;;;5.90;;
65202;SDS011;51788;45.124;38.966;2023-02-28T00:37:29;6.00;;;5.40;;
65202;SDS011;51788;45.124;38.966;2023-02-28T00:39:55;9.38;;;6.68;;
65202;SDS011;51788;45.124;38.966;2023-02-28T00:42:21;11.65;;;6.55;;
65202;SDS011;51788;45.124;38.966;2023-02-28T00:44:47;6.40;;;5.68;;
65202;SDS011;51788;45.124;38.966;2023-02-28T00:47:13;9.10;;;6.10;;
65202;SDS011;51788;45.124;38.966;2023-02-28T00:49:39;6.60;;;6.00;;
65202;SDS011;51788;45.124;38.966;2023-02-28T00:52:08;8.15;;;6.57;;
65202;SDS011;51788;45.124;38.966;2023-02-28T00:54:34;6.85;;;5.63;;
65202;SDS011;51788;45.124;38.966;2023-02-28T00:57:00;8.80;;;5.38;;
65202;SDS011;51788;45.124;38.966;2023-02-28T00:59:26;7.07;;;6.35;;
65202;SDS011;51788;45.124;38.966;2023-02-28T01:01:52;13.52;;;6.57;;
65202;SDS011;51788;45.124;38.966;2023-02-28T01:04:18;10.43;;;6.45;;
65202;SDS011;51788;45.124;38.966;2023-02-28T01:06:44;16.50;;;5.88;;
65202;SDS011;51788;45.124;38.966;2023-02-28T01:09:10;7.78;;;6.18;;
65202;SDS011;51788;45.124;38.966;2023-02-28T01:11:37;8.27;;;6.30;;
65202;SDS011;51788;45.124;38.966;2023-02-28T01:14:04;6.50;;;5.90;;
65202;SDS011;51788;45.124;38.966;2023-02-28T01:16:30;8.60;;;5.47;;
65202;SDS011;51788;45.124;38.966;2023-02-28T01:18:56;9.38;;;6.45;;
65202;SDS011;51788;45.124;38.966;2023-02-28T01:21:22;12.95;;;6.28;;
65202;SDS011;51788;45.124;38.966;2023-02-28T01:23:49;9.95;;;5.90;;
65202;SDS011;51788;45.124;38.966;2023-02-28T01:26:19;8.90;;;6.75;;
65202;SDS011;51788;45.124;38.966;2023-02-28T01:28:46;11.18;;;6.30;;
65202;SDS011;51788;45.124;38.966;2023-02-28T01:31:13;8.75;;;6.30;;
65202;SDS011;51788;45.124;38.966;2023-02-28T01:33:39;8.70;;;6.30;;
65202;SDS011;51788;45.124;38.966;2023-02-28T01:36:07;6.82;;;6.22;;
65202;SDS011;51788;45.124;38.966;2023-02-28T01:38:37;13.17;;;8.23;;
65202;SDS011;51788;45.124;38.966;2023-02-28T01:41:03;8.93;;;7.40;;
65202;SDS011;51788;45.124;38.966;2023-02-28T01:43:39;8.15;;;7.00;;
65202;SDS011;51788;45.124;38.966;2023-02-28T01:46:22;9.73;;;6.25;;
65202;SDS011;51788;45.124;38.966;2023-02-28T01:48:53;8.55;;;6.40;;
65202;SDS011;51788;45.124;38.966;2023-02-28T01:51:25;7.68;;;5.75;;
65202;SDS011;51788;45.124;38.966;2023-02-28T01:53:56;7.65;;;5.82;;
65202;SDS011;51788;45.124;38.966;2023-02-28T01:56:27;8.80;;;6.78;;
65202;SDS011;51788;45.124;38.966;2023-02-28T01:58:57;10.18;;;6.43;;
65202;SDS011;51788;45.124;38.966;2023-02-28T02:01:24;6.55;;;5.95;;
65202;SDS011;51788;45.124;38.966;2023-02-28T02:03:59;9.63;;;6.45;;
65202;SDS011;51788;45.124;38.966;2023-02-28T02:06:29;8.43;;;6.32;;
65202;SDS011;51788;45.124;38.966;2023-02-28T02:09:01;7.82;;;6.35;;
65202;SDS011;51788;45.124;38.966;2023-02-28T02:11:28;7.72;;;6.22;;
65202;SDS011;51788;45.124;38.966;2023-02-28T02:25:28;14.23;;;7.07;;
65202;SDS011;51788;45.124;38.966;2023-02-28T02:34:02;7.38;;;6.13;;
65202;SDS011;51788;45.124;38.966;2023-02-28T02:39:54;8.98;;;6.43;;
65202;SDS011;51788;45.124;38.966;2023-02-28T02:42:52;10.38;;;6.00;;
65202;SDS011;51788;45.124;38.966;2023-02-28T02:45:46;7.38;;;5.68;;
65202;SDS011;51788;45.124;38.966;2023-02-28T02:48:21;9.55;;;5.75;;
65202;SDS011;51788;45.124;38.966;2023-02-28T02:51:07;13.23;;;6.90;;
65202;SDS011;51788;45.124;38.966;2023-02-28T02:54:00;16.63;;;6.60;;
65202;SDS011;51788;45.124;38.966;2023-02-28T02:56:28;12.57;;;6.65;;
65202;SDS011;51788;45.124;38.966;2023-02-28T02:58:59;11.75;;;6.68;;
65202;SDS011;51788;45.124;38.966;2023-02-28T03:04:01;13.27;;;6.38;;
65202;SDS011;51788;45.124;38.966;2023-02-28T03:06:29;13.20;;;6.63;;
65202;SDS011;51788;45.124;38.966;2023-02-28T03:08:55;11.38;;;6.60;;
65202;SDS011;51788;45.124;38.966;2023-02-28T03:11:22;13.93;;;6.43;;
65202;SDS011;51788;45.124;38.966;2023-02-28T03:19:41;8.15;;;6.50;;
65202;SDS011;51788;45.124;38.966;2023-02-28T03:33:11;34.70;;;8.10;;
65202;SDS011;51788;45.124;38.966;2023-02-28T03:35:52;37.63;;;9.73;;
65202;SDS011;51788;45.124;38.966;2023-02-28T03:41:15;42.28;;;10.02;;
65202;SDS011;51788;45.124;38.966;2023-02-28T03:43:48;28.95;;;9.30;;
65202;SDS011;51788;45.124;38.966;2023-02-28T03:46:28;27.65;;;10.93;;
65202;SDS011;51788;45.124;38.966;2023-02-28T03:49:15;20.38;;;9.05;;
65202;SDS011;51788;45.124;38.966;2023-02-28T03:51:44;19.15;;;8.98;;
65202;SDS011;51788;45.124;38.966;2023-02-28T03:54:34;16.90;;;7.93;;
65202;SDS011;51788;45.124;38.966;2023-02-28T03:57:11;22.33;;;7.75;;
65202;SDS011;51788;45.124;38.966;2023-02-28T03:59:39;15.25;;;7.80;;
65202;SDS011;51788;45.124;38.966;2023-02-28T04:02:14;18.60;;;6.90;;
65202;SDS011;51788;45.124;38.966;2023-02-28T04:04:40;17.20;;;6.85;;
65202;SDS011;51788;45.124;38.966;2023-02-28T04:07:10;21.65;;;6.20;;
65202;SDS011;51788;45.124;38.966;2023-02-28T04:09:37;11.90;;;6.68;;
65202;SDS011;51788;45.124;38.966;2023-02-28T04:12:03;11.38;;;6.63;;
65202;SDS011;51788;45.124;38.966;2023-02-28T04:14:29;19.00;;;7.18;;
65202;SDS011;51788;45.124;38.966;2023-02-28T04:16:55;17.95;;;6.68;;
65202;SDS011;51788;45.124;38.966;2023-02-28T04:19:21;17.70;;;6.85;;
65202;SDS011;51788;45.124;38.966;2023-02-28T04:21:48;17.88;;;6.82;;
65202;SDS011;51788;45.124;38.966;2023-02-28T04:24:20;8.40;;;5.63;;
65202;SDS011;51788;45.124;38.966;2023-02-28T04:26:48;23.10;;;7.00;;
65202;SDS011;51788;45.124;38.966;2023-02-28T04:29:23;12.63;;;6.07;;
65202;SDS011;51788;45.124;38.966;2023-02-28T04:31:51;12.00;;;6.18;;
65202;SDS011;51788;45.124;38.966;2023-02-28T04:34:23;11.77;;;6.23;;
65202;SDS011;51788;45.124;38.966;2023-02-28T04:36:49;15.13;;;6.47;;
65202;SDS011;51788;45.124;38.966;2023-02-28T04:39:16;13.35;;;6.35;;
65202;SDS011;51788;45.124;38.966;2023-02-28T04:41:44;8.13;;;6.20;;
65202;SDS011;51788;45.124;38.966;2023-02-28T04:44:10;18.10;;;6.80;;
65202;SDS011;51788;45.124;38.966;2023-02-28T04:46:36;13.10;;;6.78;;
65202;SDS011;51788;45.124;38.966;2023-02-28T04:49:02;17.90;;;6.20;;
65202;SDS011;51788;45.124;38.966;2023-02-28T04:51:28;16.38;;;6.90;;
65202;SDS011;51788;45.124;38.966;2023-02-28T04:53:54;20.10;;;6.78;;
65202;SDS011;51788;45.124;38.966;2023-02-28T04:56:21;15.25;;;6.65;;
65202;SDS011;51788;45.124;38.966;2023-02-28T04:58:47;8.13;;;5.85;;
65202;SDS011;51788;45.124;38.966;2023-02-28T05:01:26;9.52;;;6.35;;
65202;SDS011;51788;45.124;38.966;2023-02-28T05:03:57;14.32;;;6.43;;
65202;SDS011;51788;45.124;38.966;2023-02-28T05:06:25;13.65;;;5.90;;
65202;SDS011;51788;45.124;38.966;2023-02-28T05:08:52;34.30;;;6.78;;
65202;SDS011;51788;45.124;38.966;2023-02-28T05:11:20;13.27;;;6.28;;
65202;SDS011;51788;45.124;38.966;2023-02-28T05:14:03;33.42;;;6.60;;
65202;SDS011;51788;45.124;38.966;2023-02-28T05:16:31;9.18;;;6.20;;
65202;SDS011;51788;45.124;38.966;2023-02-28T05:18:58;20.00;;;6.85;;
65202;SDS011;51788;45.124;38.966;2023-02-28T05:21:28;25.90;;;8.00;;
65202;SDS011;51788;45.124;38.966;2023-02-28T05:24:00;17.65;;;6.35;;
65202;SDS011;51788;45.124;38.966;2023-02-28T05:26:28;13.40;;;6.90;;
65202;SDS011;51788;45.124;38.966;2023-02-28T05:28:55;11.13;;;5.72;;
65202;SDS011;51788;45.124;38.966;2023-02-28T05:31:21;17.80;;;6.32;;
65202;SDS011;51788;45.124;38.966;2023-02-28T05:33:48;27.40;;;6.28;;
65202;SDS011;51788;45.124;38.966;2023-02-28T05:36:14;18.88;;;6.82;;
65202;SDS011;51788;45.124;38.966;2023-02-28T05:38:40;24.33;;;7.72;;
65202;SDS011;51788;45.124;38.966;2023-02-28T05:41:09;16.85;;;7.40;;
65202;SDS011;51788;45.124;38.966;2023-02-28T05:43:36;12.10;;;7.20;;
65202;SDS011;51788;45.124;38.966;2023-02-28T05:46:06;7.35;;;5.65;;
65202;SDS011;51788;45.124;38.966;2023-02-28T05:48:34;44.20;;;7.53;;
65202;SDS011;51788;45.124;38.966;2023-02-28T05:51:01;11.50;;;7.80;;
65202;SDS011;51788;45.124;38.966;2023-02-28T05:53:28;24.83;;;7.03;;
65202;SDS011;51788;45.124;38.966;2023-02-28T05:55:55;9.73;;;7.45;;
65202;SDS011;51788;45.124;38.966;2023-02-28T05:58:21;13.35;;;9.50;;
65202;SDS011;51788;45.124;38.966;2023-02-28T06:00:47;18.52;;;8.15;;
65202;SDS011;51788;45.124;38.966;2023-02-28T06:03:13;31.73;;;8.45;;
65202;SDS011;51788;45.124;38.966;2023-02-28T06:05:41;24.90;;;8.43;;
65202;SDS011;51788;45.124;38.966;2023-02-28T06:08:07;34.85;;;8.70;;
65202;SDS011;51788;45.124;38.966;2023-02-28T06:10:34;13.20;;;7.20;;
65202;SDS011;51788;45.124;38.966;2023-02-28T06:13:01;18.23;;;7.63;;
65202;SDS011;51788;45.124;38.966;2023-02-28T06:15:27;39.72;;;8.73;;
65202;SDS011;51788;45.124;38.966;2023-02-28T06:17:54;26.17;;;8.20;;
65202;SDS011;51788;45.124;38.966;2023-02-28T06:20:22;28.70;;;8.02;;
65202;SDS011;51788;45.124;38.966;2023-02-28T06:22:48;9.85;;;6.03;;
65202;SDS011;51788;45.124;38.966;2023-02-28T06:25:16;11.75;;;7.32;;
65202;SDS011;51788;45.124;38.966;2023-02-28T06:27:42;42.53;;;9.73;;
65202;SDS011;51788;45.124;38.966;2023-02-28T06:30:09;33.58;;;8.23;;
65202;SDS011;51788;45.124;38.966;2023-02-28T06:32:36;11.27;;;8.00;;
65202;SDS011;51788;45.124;38.966;2023-02-28T06:35:02;13.70;;;8.60;;
65202;SDS011;51788;45.124;38.966;2023-02-28T06:37:30;13.07;;;7.63;;
65202;SDS011;51788;45.124;38.966;2023-02-28T06:39:56;16.05;;;8.85;;
65202;SDS011;51788;45.124;38.966;2023-02-28T06:42:23;24.80;;;8.75;;
65202;SDS011;51788;45.124;38.966;2023-02-28T06:44:56;15.23;;;7.57;;
65202;SDS011;51788;45.124;38.966;2023-02-28T06:47:23;21.20;;;8.73;;
65202;SDS011;51788;45.124;38.966;2023-02-28T06:49:49;21.20;;;8.45;;
65202;SDS011;51788;45.124;38.966;2023-02-28T06:52:15;27.30;;;8.25;;
65202;SDS011;51788;45.124;38.966;2023-02-28T06:54:41;22.23;;;8.13;;
65202;SDS011;51788;45.124;38.966;2023-02-28T06:57:07;25.92;;;8.25;;
65202;SDS011;51788;45.124;38.966;2023-02-28T06:59:33;12.82;;;7.57;;
65202;SDS011;51788;45.124;38.966;2023-02-28T07:02:00;19.23;;;8.15;;
65202;SDS011;51788;45.124;38.966;2023-02-28T07:04:27;26.42;;;8.80;;
65202;SDS011;51788;45.124;38.966;2023-02-28T07:06:54;15.00;;;8.25;;
65202;SDS011;51788;45.124;38.966;2023-02-28T07:09:22;22.27;;;8.68;;
65202;SDS011;51788;45.124;38.966;2023-02-28T07:11:48;16.08;;;8.13;;
65202;SDS011;51788;45.124;38.966;2023-02-28T07:14:14;18.10;;;8.18;;
65202;SDS011;51788;45.124;38.966;2023-02-28T07:16:40;15.38;;;6.85;;
65202;SDS011;51788;45.124;38.966;2023-02-28T07:19:06;12.50;;;5.60;;
65202;SDS011;51788;45.124;38.966;2023-02-28T07:21:32;10.02;;;7.45;;
65202;SDS011;51788;45.124;38.966;2023-02-28T07:23:58;14.05;;;6.57;;
65202;SDS011;51788;45.124;38.966;2023-02-28T07:26:24;17.92;;;7.35;;
65202;SDS011;51788;45.124;38.966;2023-02-28T07:28:50;10.30;;;7.78;;
65202;SDS011;51788;45.124;38.966;2023-02-28T07:31:16;9.75;;;7.97;;
65202;SDS011;51788;45.124;38.966;2023-02-28T07:33:43;28.02;;;8.93;;
65202;SDS011;51788;45.124;38.966;2023-02-28T07:36:10;14.77;;;7.95;;
65202;SDS011;51788;45.124;38.966;2023-02-28T07:38:41;13.35;;;8.57;;
65202;SDS011;51788;45.124;38.966;2023-02-28T07:41:09;13.07;;;6.18;;
65202;SDS011;51788;45.124;38.966;2023-02-28T07:43:35;18.65;;;7.13;;
65202;SDS011;51788;45.124;38.966;2023-02-28T07:46:05;25.25;;;9.35;;
65202;SDS011;51788;45.124;38.966;2023-02-28T07:48:36;8.82;;;6.05;;
65202;SDS011;51788;45.124;38.966;2023-02-28T07:51:02;12.52;;;5.63;;
65202;SDS011;51788;45.124;38.966;2023-02-28T07:53:28;21.13;;;7.63;;
65202;SDS011;51788;45.124;38.966;2023-02-28T07:55:55;17.23;;;6.38;;
65202;SDS011;51788;45.124;38.966;2023-02-28T07:58:23;20.70;;;7.65;;
65202;SDS011;51788;45.124;38.966;2023-02-28T08:00:49;5.43;;;4.28;;
65202;SDS011;51788;45.124;38.966;2023-02-28T08:03:16;14.50;;;7.13;;
65202;SDS011;51788;45.124;38.966;2023-02-28T08:05:43;36.70;;;8.90;;
65202;SDS011;51788;45.124;38.966;2023-02-28T08:08:10;18.35;;;8.77;;
65202;SDS011;51788;45.124;38.966;2023-02-28T08:10:36;29.27;;;9.60;;
65202;SDS011;51788;45.124;38.966;2023-02-28T08:13:02;22.23;;;8.18;;
65202;SDS011;51788;45.124;38.966;2023-02-28T08:15:29;14.60;;;10.05;;
65202;SDS011;51788;45.124;38.966;2023-02-28T08:17:55;26.77;;;9.50;;
65202;SDS011;51788;45.124;38.966;2023-02-28T08:20:22;17.95;;;8.98;;
65202;SDS011;51788;45.124;38.966;2023-02-28T08:22:49;29.08;;;10.07;;
65202;SDS011;51788;45.124;38.966;2023-02-28T08:25:16;16.60;;;9.27;;
65202;SDS011;51788;45.124;38.966;2023-02-28T08:27:42;8.85;;;6.40;;
65202;SDS011;51788;45.124;38.966;2023-02-28T08:30:10;47.58;;;10.55;;
65202;SDS011;51788;45.124;38.966;2023-02-28T08:32:37;19.58;;;8.95;;
65202;SDS011;51788;45.124;38.966;2023-02-28T08:35:03;29.17;;;10.02;;
65202;SDS011;51788;45.124;38.966;2023-02-28T08:37:30;20.88;;;8.32;;
65202;SDS011;51788;45.124;38.966;2023-02-28T08:39:56;35.47;;;9.70;;
65202;SDS011;51788;45.124;38.966;2023-02-28T08:42:22;25.88;;;9.48;;
65202;SDS011;51788;45.124;38.966;2023-02-28T08:44:49;26.08;;;10.88;;
65202;SDS011;51788;45.124;38.966;2023-02-28T08:47:15;17.50;;;9.52;;
65202;SDS011;51788;45.124;38.966;2023-02-28T08:49:41;33.08;;;10.80;;
65202;SDS011;51788;45.124;38.966;2023-02-28T08:52:07;24.13;;;9.75;;
65202;SDS011;51788;45.124;38.966;2023-02-28T08:54:32;35.50;;;12.25;;
65202;SDS011;51788;45.124;38.966;2023-02-28T08:56:59;35.55;;;10.88;;
65202;SDS011;51788;45.124;38.966;2023-02-28T08:59:25;21.40;;;11.05;;
65202;SDS011;51788;45.124;38.966;2023-02-28T09:01:51;28.70;;;12.45;;
65202;SDS011;51788;45.124;38.966;2023-02-28T09:04:17;36.72;;;11.90;;
65202;SDS011;51788;45.124;38.966;2023-02-28T09:06:43;26.17;;;12.18;;
65202;SDS011;51788;45.124;38.966;2023-02-28T09:09:10;31.00;;;10.77;;
65202;SDS011;51788;45.124;38.966;2023-02-28T09:11:36;38.03;;;10.25;;
65202;SDS011;51788;45.124;38.966;2023-02-28T09:14:02;33.80;;;10.27;;
65202;SDS011;51788;45.124;38.966;2023-02-28T09:16:31;18.48;;;9.60;;
65202;SDS011;51788;45.124;38.966;2023-02-28T09:18:58;47.33;;;10.52;;
65202;SDS011;51788;45.124;38.966;2023-02-28T09:21:24;15.27;;;9.40;;
65202;SDS011;51788;45.124;38.966;2023-02-28T09:23:50;37.95;;;9.45;;
65202;SDS011;51788;45.124;38.966;2023-02-28T09:26:17;18.55;;;10.93;;
65202;SDS011;51788;45.124;38.966;2023-02-28T09:28:45;23.83;;;11.02;;
65202;SDS011;51788;45.124;38.966;2023-02-28T09:31:12;20.08;;;10.60;;
65202;SDS011;51788;45.124;38.966;2023-02-28T09:33:40;25.42;;;11.70;;
65202;SDS011;51788;45.124;38.966;2023-02-28T09:36:06;11.15;;;7.65;;
65202;SDS011;51788;45.124;38.966;2023-02-28T09:38:32;40.30;;;12.00;;
65202;SDS011;51788;45.124;38.966;2023-02-28T09:41:01;38.72;;;11.55;;
65202;SDS011;51788;45.124;38.966;2023-02-28T09:43:32;24.05;;;11.40;;
65202;SDS011;51788;45.124;38.966;2023-02-28T09:46:11;14.50;;;10.10;;
65202;SDS011;51788;45.124;38.966;2023-02-28T09:48:41;13.93;;;10.38;;
65202;SDS011;51788;45.124;38.966;2023-02-28T09:54:00;34.80;;;11.55;;
65202;SDS011;51788;45.124;38.966;2023-02-28T09:56:36;27.95;;;11.10;;
65202;SDS011;51788;45.124;38.966;2023-02-28T10:06:50;36.95;;;13.85;;
65202;SDS011;51788;45.124;38.966;2023-02-28T10:09:25;20.00;;;13.52;;
65202;SDS011;51788;45.124;38.966;2023-02-28T10:11:56;29.88;;;13.35;;
65202;SDS011;51788;45.124;38.966;2023-02-28T10:14:29;18.23;;;12.38;;
65202;SDS011;51788;45.124;38.966;2023-02-28T10:17:08;17.75;;;12.55;;
65202;SDS011;51788;45.124;38.966;2023-02-28T10:25:19;20.60;;;10.55;;
65202;SDS011;51788;45.124;38.966;2023-02-28T10:27:46;33.65;;;12.75;;
65202;SDS011;51788;45.124;38.966;2023-02-28T10:30:12;31.05;;;12.13;;
65202;SDS011;51788;45.124;38.966;2023-02-28T10:32:46;22.55;;;13.48;;
65202;SDS011;51788;45.124;38.966;2023-02-28T10:35:16;15.18;;;11.00;;
65202;SDS011;51788;45.124;38.966;2023-02-28T10:37:47;19.60;;;12.32;;
65202;SDS011;51788;45.124;38.966;2023-02-28T10:45:51;18.20;;;9.98;;
65202;SDS011;51788;45.124;38.966;2023-02-28T10:56:01;25.55;;;11.57;;
65202;SDS011;51788;45.124;38.966;2023-02-28T11:03:46;39.70;;;15.48;;
65202;SDS011;51788;45.124;38.966;2023-02-28T11:06:14;29.85;;;17.92;;
65202;SDS011;51788;45.124;38.966;2023-02-28T11:08:46;25.52;;;16.80;;
65202;SDS011;51788;45.124;38.966;2023-02-28T11:11:24;23.42;;;12.90;;
65202;SDS011;51788;45.124;38.966;2023-02-28T11:13:53;32.08;;;15.75;;
65202;SDS011;51788;45.124;38.966;2023-02-28T11:16:22;30.65;;;17.90;;
65202;SDS011;51788;45.124;38.966;2023-02-28T11:18:58;27.52;;;16.17;;
65202;SDS011;51788;45.124;38.966;2023-02-28T11:24:00;29.48;;;16.65;;
65202;SDS011;51788;45.124;38.966;2023-02-28T11:26:40;41.42;;;18.27;;
65202;SDS011;51788;45.124;38.966;2023-02-28T11:29:10;16.70;;;12.43;;
65202;SDS011;51788;45.124;38.966;2023-02-28T11:31:41;26.35;;;16.73;;
65202;SDS011;51788;45.124;38.966;2023-02-28T11:34:25;35.58;;;16.02;;
65202;SDS011;51788;45.124;38.966;2023-02-28T11:36:54;23.70;;;14.45;;
65202;SDS011;51788;45.124;38.966;2023-02-28T11:39:22;26.88;;;15.52;;
65202;SDS011;51788;45.124;38.966;2023-02-28T11:44:43;36.97;;;15.70;;
65202;SDS011;51788;45.124;38.966;2023-02-28T11:53:00;24.85;;;16.02;;
65202;SDS011;51788;45.124;38.966;2023-02-28T11:55:37;27.02;;;15.98;;
65202;SDS011;51788;45.124;38.966;2023-02-28T11:58:19;34.72;;;15.70;;
65202;SDS011;51788;45.124;38.966;2023-02-28T12:11:55;21.35;;;12.18;;
65202;SDS011;51788;45.124;38.966;2023-02-28T12:14:54;24.55;;;14.52;;
65202;SDS011;51788;45.124;38.966;2023-02-28T12:17:51;27.65;;;16.20;;
65202;SDS011;51788;45.124;38.966;2023-02-28T12:29:19;27.90;;;15.23;;
65202;SDS011;51788;45.124;38.966;2023-02-28T12:31:59;28.27;;;14.50;;
65202;SDS011;51788;45.124;38.966;2023-02-28T12:34:34;21.98;;;13.68;;
65202;SDS011;51788;45.124;38.966;2023-02-28T12:37:06;28.58;;;16.58;;
65202;SDS011;51788;45.124;38.966;2023-02-28T12:39:36;24.20;;;15.40;;
65202;SDS011;51788;45.124;38.966;2023-02-28T12:42:13;20.08;;;14.15;;
65202;SDS011;51788;45.124;38.966;2023-02-28T12:44:52;20.63;;;13.77;;
65202;SDS011;51788;45.124;38.966;2023-02-28T12:47:23;25.95;;;16.25;;
65202;SDS011;51788;45.124;38.966;2023-02-28T12:49:50;27.80;;;13.07;;
65202;SDS011;51788;45.124;38.966;2023-02-28T12:55:00;20.25;;;14.23;;
65202;SDS011;51788;45.124;38.966;2023-02-28T13:00:22;33.27;;;16.73;;
65202;SDS011;51788;45.124;38.966;2023-02-28T13:14:00;29.17;;;16.85;;
65202;SDS011;51788;45.124;38.966;2023-02-28T13:16:48;25.35;;;15.25;;
65202;SDS011;51788;45.124;38.966;2023-02-28T13:19:18;25.55;;;15.05;;
65202;SDS011;51788;45.124;38.966;2023-02-28T13:21:48;35.33;;;19.38;;
65202;SDS011;51788;45.124;38.966;2023-02-28T13:29:57;27.30;;;16.95;;
65202;SDS011;51788;45.124;38.966;2023-02-28T13:32:31;41.45;;;15.75;;
65202;SDS011;51788;45.124;38.966;2023-02-28T13:47:36;28.63;;;16.17;;
65202;SDS011;51788;45.124;38.966;2023-02-28T14:04:46;50.97;;;18.08;;
65202;SDS011;51788;45.124;38.966;2023-02-28T14:07:22;31.10;;;17.83;;
65202;SDS011;51788;45.124;38.966;2023-02-28T14:09:55;31.85;;;16.90;;
65202;SDS011;51788;45.124;38.966;2023-02-28T14:17:59;33.25;;;19.48;;
65202;SDS011;51788;45.124;38.966;2023-02-28T14:20:29;38.72;;;17.38;;
65202;SDS011;51788;45.124;38.966;2023-02-28T14:23:02;40.78;;;18.50;;
65202;SDS011;51788;45.124;38.966;2023-02-28T14:25:38;38.70;;;16.63;;
65202;SDS011;51788;45.124;38.966;2023-02-28T14:28:16;49.88;;;19.48;;
65202;SDS011;51788;45.124;38.966;2023-02-28T14:36:24;37.38;;;15.95;;
65202;SDS011;51788;45.124;38.966;2023-02-28T14:38:57;45.60;;;18.48;;
65202;SDS011;51788;45.124;38.966;2023-02-28T14:44:22;46.13;;;20.27;;
65202;SDS011;51788;45.124;38.966;2023-02-28T14:46:52;39.95;;;18.95;;
65202;SDS011;51788;45.124;38.966;2023-02-28T14:49:51;45.83;;;20.52;;
65202;SDS011;51788;45.124;38.966;2023-02-28T14:54:45;40.47;;;17.63;;
65202;SDS011;51788;45.124;38.966;2023-02-28T14:57:38;29.80;;;12.82;;
65202;SDS011;51788;45.124;38.966;2023-02-28T15:00:46;47.58;;;19.45;;
65202;SDS011;51788;45.124;38.966;2023-02-28T15:03:00;48.75;;;23.02;;
65202;SDS011;51788;45.124;38.966;2023-02-28T15:05:42;35.05;;;17.33;;
65202;SDS011;51788;45.124;38.966;2023-02-28T15:08:18;33.08;;;17.98;;
65202;SDS011;51788;45.124;38.966;2023-02-28T15:10:52;45.97;;;21.77;;
65202;SDS011;51788;45.124;38.966;2023-02-28T15:13:20;43.45;;;21.15;;
65202;SDS011;51788;45.124;38.966;2023-02-28T15:20:54;44.28;;;20.88;;
65202;SDS011;51788;45.124;38.966;2023-02-28T15:23:21;47.35;;;18.45;;
65202;SDS011;51788;45.124;38.966;2023-02-28T15:25:47;27.25;;;15.20;;
65202;SDS011;51788;45.124;38.966;2023-02-28T15:28:18;45.63;;;17.25;;
65202;SDS011;51788;45.124;38.966;2023-02-28T15:30:53;33.33;;;16.33;;
65202;SDS011;51788;45.124;38.966;2023-02-28T15:33:25;34.20;;;17.40;;
65202;SDS011;51788;45.124;38.966;2023-02-28T15:36:03;33.67;;;14.70;;
65202;SDS011;51788;45.124;38.966;2023-02-28T15:38:42;26.58;;;14.60;;
65202;SDS011;51788;45.124;38.966;2023-02-28T15:41:29;21.38;;;13.55;;
65202;SDS011;51788;45.124;38.966;2023-02-28T15:46:53;36.40;;;17.80;;
65202;SDS011;51788;45.124;38.966;2023-02-28T15:49:24;24.33;;;13.90;;
65202;SDS011;51788;45.124;38.966;2023-02-28T15:51:51;27.38;;;14.55;;
65202;SDS011;51788;45.124;38.966;2023-02-28T15:54:20;26.77;;;13.38;;
65202;SDS011;51788;45.124;38.966;2023-02-28T15:56:53;16.73;;;10.55;;
65202;SDS011;51788;45.124;38.966;2023-02-28T15:59:30;25.08;;;11.60;;
65202;SDS011;51788;45.124;38.966;2023-02-28T16:04:35;15.02;;;10.80;;
65202;SDS011;51788;45.124;38.966;2023-02-28T16:07:05;18.23;;;8.75;;
65202;SDS011;51788;45.124;38.966;2023-02-28T16:09:37;25.58;;;11.85;;
65202;SDS011;51788;45.124;38.966;2023-02-28T16:12:03;48.72;;;12.40;;
65202;SDS011;51788;45.124;38.966;2023-02-28T16:14:30;33.08;;;13.05;;
65202;SDS011;51788;45.124;38.966;2023-02-28T16:17:02;27.80;;;9.23;;
65202;SDS011;51788;45.124;38.966;2023-02-28T16:19:30;13.60;;;9.00;;
65202;SDS011;51788;45.124;38.966;2023-02-28T16:21:56;25.63;;;11.55;;
65202;SDS011;51788;45.124;38.966;2023-02-28T16:24:22;21.85;;;12.70;;
65202;SDS011;51788;45.124;38.966;2023-02-28T16:26:50;14.68;;;9.73;;
65202;SDS011;51788;45.124;38.966;2023-02-28T16:29:28;13.05;;;9.55;;
65202;SDS011;51788;45.124;38.966;2023-02-28T16:31:56;18.70;;;8.45;;
65202;SDS011;51788;45.124;38.966;2023-02-28T16:34:24;25.38;;;13.48;;
65202;SDS011;51788;45.124;38.966;2023-02-28T16:36:50;18.40;;;11.85;;
65202;SDS011;51788;45.124;38.966;2023-02-28T16:39:17;23.17;;;13.27;;
65202;SDS011;51788;45.124;38.966;2023-02-28T16:41:46;30.70;;;14.48;;
65202;SDS011;51788;45.124;38.966;2023-02-28T16:44:17;17.20;;;11.02;;
65202;SDS011;51788;45.124;38.966;2023-02-28T16:47:02;21.42;;;10.07;;
65202;SDS011;51788;45.124;38.966;2023-02-28T16:49:29;20.60;;;10.55;;
65202;SDS011;51788;45.124;38.966;2023-02-28T16:51:56;12.43;;;8.50;;
65202;SDS011;51788;45.124;38.966;2023-02-28T16:54:29;24.73;;;11.90;;
65202;SDS011;51788;45.124;38.966;2023-02-28T16:56:57;25.25;;;10.75;;
65202;SDS011;51788;45.124;38.966;2023-02-28T16:59:23;19.55;;;11.73;;
65202;SDS011;51788;45.124;38.966;2023-02-28T17:01:51;19.13;;;12.13;;
65202;SDS011;51788;45.124;38.966;2023-02-28T17:04:18;28.63;;;12.90;;
65202;SDS011;51788;45.124;38.966;2023-02-28T17:06:44;13.65;;;7.00;;
65202;SDS011;51788;45.124;38.966;2023-02-28T17:09:14;18.80;;;12.48;;
65202;SDS011;51788;45.124;38.966;2023-02-28T17:11:42;14.17;;;9.40;;
65202;SDS011;51788;45.124;38.966;2023-02-28T17:14:09;19.20;;;10.27;;
65202;SDS011;51788;45.124;38.966;2023-02-28T17:16:37;20.70;;;9.68;;
65202;SDS011;51788;45.124;38.966;2023-02-28T17:19:10;28.08;;;10.98;;
65202;SDS011;51788;45.124;38.966;2023-02-28T17:21:40;20.92;;;10.93;;
65202;SDS011;51788;45.124;38.966;2023-02-28T17:24:07;16.70;;;9.93;;
65202;SDS011;51788;45.124;38.966;2023-02-28T17:26:37;15.68;;;9.27;;
65202;SDS011;51788;45.124;38.966;2023-02-28T17:29:06;25.48;;;11.85;;
65202;SDS011;51788;45.124;38.966;2023-02-28T17:31:51;21.27;;;10.95;;
65202;SDS011;51788;45.124;38.966;2023-02-28T17:34:17;27.45;;;14.05;;
65202;SDS011;51788;45.124;38.966;2023-02-28T17:36:45;21.70;;;12.20;;
65202;SDS011;51788;45.124;38.966;2023-02-28T17:39:13;22.75;;;9.80;;